createdAt,value
2022-10-25T00:00:31.932Z,14.3
2022-10-25T00:01:32.551Z,14.23
2022-10-25T00:02:32.178Z,14.23
2022-10-25T00:03:31.916Z,14.16
2022-10-25T00:04:31.951Z,14.22
2022-10-25T00:05:34.583Z,14.15
2022-10-25T00:06:31.933Z,14.12
2022-10-25T00:07:31.941Z,14.11
2022-10-25T00:08:31.785Z,14.11
2022-10-25T00:09:31.952Z,14.07
2022-10-25T00:10:31.929Z,14.03
2022-10-25T00:11:31.934Z,14.15
2022-10-25T00:12:32.564Z,14.07
2022-10-25T00:13:31.930Z,14.12
2022-10-25T00:14:31.934Z,14.12
2022-10-25T00:15:31.999Z,14.12
2022-10-25T00:16:34.965Z,14.11
2022-10-25T00:17:31.999Z,14.12
2022-10-25T00:18:31.956Z,14.11
2022-10-25T00:19:31.940Z,14.11
2022-10-25T00:20:31.970Z,14.08
2022-10-25T00:21:31.989Z,13.98
2022-10-25T00:22:31.972Z,13.94
2022-10-25T00:23:31.947Z,13.95
2022-10-25T00:24:31.942Z,13.93
2022-10-25T00:25:31.979Z,13.98
2022-10-25T00:26:31.953Z,13.87
2022-10-25T00:27:33.581Z,13.93
2022-10-25T00:28:31.991Z,13.85
2022-10-25T00:29:31.973Z,13.83
2022-10-25T00:30:31.967Z,13.79
2022-10-25T00:31:32.040Z,13.8
2022-10-25T00:32:31.980Z,13.83
2022-10-25T00:33:31.975Z,13.85
2022-10-25T00:34:31.973Z,13.83
2022-10-25T00:35:31.973Z,13.83
2022-10-25T00:36:32.001Z,13.79
2022-10-25T00:37:32.111Z,13.83
2022-10-25T00:38:34.850Z,13.8
2022-10-25T00:39:32.003Z,13.86
2022-10-25T00:40:31.984Z,13.79
2022-10-25T00:41:32.026Z,13.79
2022-10-25T00:42:32.007Z,13.78
2022-10-25T00:43:31.983Z,13.8
2022-10-25T00:44:31.989Z,13.71
2022-10-25T00:45:31.995Z,13.76
2022-10-25T00:46:32.011Z,13.79
2022-10-25T00:47:32.190Z,13.73
2022-10-25T00:48:31.996Z,13.76
2022-10-25T00:49:34.871Z,13.82
2022-10-25T00:50:32.006Z,13.71
2022-10-25T00:51:32.007Z,13.75
2022-10-25T00:52:32.058Z,13.75
2022-10-25T00:53:32.032Z,13.7
2022-10-25T00:54:32.019Z,13.78
2022-10-25T00:55:32.039Z,13.73
2022-10-25T00:56:32.009Z,13.68
2022-10-25T00:57:32.057Z,13.68
2022-10-25T00:58:32.186Z,13.75
2022-10-25T00:59:32.014Z,13.64
2022-10-25T01:00:35.032Z,13.68
2022-10-25T01:01:32.536Z,13.64
2022-10-25T01:02:32.507Z,13.68
2022-10-25T01:03:32.019Z,13.73
2022-10-25T01:04:32.020Z,13.7
2022-10-25T01:05:32.068Z,13.73
2022-10-25T01:06:32.018Z,13.57
2022-10-25T01:07:32.056Z,13.58
2022-10-25T01:08:32.072Z,13.75
2022-10-25T01:09:32.086Z,13.67
2022-10-25T01:10:32.027Z,13.62
2022-10-25T01:11:35.076Z,13.42
2022-10-25T01:12:32.038Z,13.55
2022-10-25T01:13:32.062Z,13.58
2022-10-25T01:14:32.034Z,13.55
2022-10-25T01:15:32.048Z,13.47
2022-10-25T01:16:32.084Z,13.55
2022-10-25T01:17:32.039Z,13.55
2022-10-25T01:18:32.037Z,13.57
2022-10-25T01:20:32.047Z,13.58
2022-10-25T01:21:32.045Z,13.57
2022-10-25T01:22:35.172Z,13.43
2022-10-25T01:23:32.080Z,13.49
2022-10-25T01:24:32.085Z,13.54
2022-10-25T01:25:32.080Z,13.5
2022-10-25T01:26:32.066Z,13.55
2022-10-25T01:27:35.110Z,13.5
2022-10-25T01:28:32.096Z,13.5
2022-10-25T01:29:32.098Z,13.5
2022-10-25T01:30:32.064Z,13.47
2022-10-25T01:31:32.068Z,13.43
2022-10-25T01:32:32.072Z,13.46
2022-10-25T01:33:34.859Z,13.61
2022-10-25T01:34:32.088Z,13.6
2022-10-25T01:35:32.082Z,13.58
2022-10-25T01:36:32.076Z,13.5
2022-10-25T01:37:32.082Z,13.58
2022-10-25T01:38:36.354Z,13.52
2022-10-25T01:39:32.094Z,13.43
2022-10-25T01:40:32.112Z,13.46
2022-10-25T01:41:32.118Z,13.37
2022-10-25T01:42:32.120Z,13.52
2022-10-25T01:43:32.113Z,13.46
2022-10-25T01:45:32.122Z,13.5
2022-10-25T01:46:32.100Z,13.42
2022-10-25T01:47:32.093Z,13.37
2022-10-25T01:48:32.126Z,13.47
2022-10-25T01:49:34.873Z,13.46
2022-10-25T01:50:32.151Z,13.4
2022-10-25T01:51:32.096Z,13.4
2022-10-25T01:52:32.116Z,13.43
2022-10-25T01:53:32.141Z,13.46
2022-10-25T01:54:32.205Z,13.49
2022-10-25T01:55:32.115Z,13.42
2022-10-25T01:56:32.144Z,13.31
2022-10-25T01:57:32.150Z,13.4
2022-10-25T01:58:32.142Z,13.39
2022-10-25T01:59:32.122Z,13.36
2022-10-25T02:00:35.465Z,13.36
2022-10-25T02:01:33.043Z,13.36
2022-10-25T02:02:35.115Z,13.37
2022-10-25T02:03:32.147Z,13.31
2022-10-25T02:04:32.114Z,13.3
2022-10-25T02:05:32.144Z,13.3
2022-10-25T02:06:32.135Z,13.27
2022-10-25T02:07:32.190Z,13.27
2022-10-25T02:08:32.150Z,13.3
2022-10-25T02:09:32.130Z,13.28
2022-10-25T02:10:32.128Z,13.3
2022-10-25T02:11:32.150Z,13.31
2022-10-25T02:12:32.167Z,13.3
2022-10-25T02:13:32.194Z,13.23
2022-10-25T02:14:32.145Z,13.16
2022-10-25T02:15:32.141Z,13.16
2022-10-25T02:16:34.946Z,13.2
2022-10-25T02:17:32.148Z,13.28
2022-10-25T02:18:33.273Z,13.2
2022-10-25T02:19:32.182Z,13.2
2022-10-25T02:20:32.145Z,13.16
2022-10-25T02:21:32.188Z,13.05
2022-10-25T02:22:35.144Z,13.12
2022-10-25T02:23:32.177Z,13.02
2022-10-25T02:24:35.091Z,13.13
2022-10-25T02:25:32.165Z,13.06
2022-10-25T02:26:32.325Z,13.2
2022-10-25T02:27:35.159Z,13.08
2022-10-25T02:28:34.968Z,13.09
2022-10-25T02:29:32.165Z,13.09
2022-10-25T02:30:32.180Z,13.01
2022-10-25T02:31:32.273Z,13.05
2022-10-25T02:32:34.975Z,13.11
2022-10-25T02:33:32.174Z,13.09
2022-10-25T02:34:32.176Z,13.16
2022-10-25T02:35:32.180Z,13.06
2022-10-25T02:36:32.181Z,13.06
2022-10-25T02:37:32.177Z,13.11
2022-10-25T02:38:32.201Z,13.12
2022-10-25T02:39:35.861Z,13.08
2022-10-25T02:40:34.911Z,13.19
2022-10-25T02:41:32.201Z,13.12
2022-10-25T02:42:32.219Z,13.16
2022-10-25T02:43:35.352Z,13.12
2022-10-25T02:44:32.243Z,13.16
2022-10-25T02:45:32.191Z,13.11
2022-10-25T02:46:32.185Z,13.09
2022-10-25T02:47:32.199Z,13.19
2022-10-25T02:48:32.218Z,13.11
2022-10-25T02:49:32.192Z,13.09
2022-10-25T02:50:32.211Z,13.06
2022-10-25T02:51:32.210Z,13.12
2022-10-25T02:52:32.211Z,13.12
2022-10-25T02:53:32.203Z,13.19
2022-10-25T02:54:35.326Z,13.2
2022-10-25T02:55:32.204Z,13.19
2022-10-25T02:56:32.207Z,13.13
2022-10-25T02:57:32.203Z,13.12
2022-10-25T02:58:32.240Z,13.16
2022-10-25T02:59:32.218Z,13.13
2022-10-25T03:00:32.466Z,13.03
2022-10-25T03:01:32.885Z,13.03
2022-10-25T03:02:32.224Z,13.05
2022-10-25T03:03:32.258Z,13.08
2022-10-25T03:04:32.245Z,13.09
2022-10-25T03:05:34.982Z,13.02
2022-10-25T03:06:32.227Z,13.13
2022-10-25T03:07:32.224Z,13.02
2022-10-25T03:08:33.272Z,13.11
2022-10-25T03:09:32.227Z,13.03
2022-10-25T03:10:32.228Z,13.02
2022-10-25T03:11:32.222Z,12.95
2022-10-25T03:12:32.234Z,12.99
2022-10-25T03:13:32.236Z,12.95
2022-10-25T03:14:32.265Z,12.98
2022-10-25T03:15:32.238Z,13.06
2022-10-25T03:16:35.142Z,13.01
2022-10-25T03:17:32.241Z,12.95
2022-10-25T03:18:32.245Z,13.03
2022-10-25T03:19:32.246Z,12.99
2022-10-25T03:20:32.274Z,12.95
2022-10-25T03:21:32.257Z,12.99
2022-10-25T03:22:32.258Z,12.98
2022-10-25T03:23:32.254Z,12.94
2022-10-25T03:24:32.288Z,12.98
2022-10-25T03:25:36.391Z,12.99
2022-10-25T03:26:32.285Z,12.99
2022-10-25T03:27:35.091Z,13.05
2022-10-25T03:28:32.257Z,13.02
2022-10-25T03:29:33.298Z,13.05
2022-10-25T03:30:32.259Z,13.01
2022-10-25T03:31:33.481Z,13.01
2022-10-25T03:32:32.324Z,12.93
2022-10-25T03:33:33.433Z,12.98
2022-10-25T03:34:32.283Z,13.09
2022-10-25T03:35:32.291Z,13.03
2022-10-25T03:36:32.324Z,12.99
2022-10-25T03:37:32.273Z,12.94
2022-10-25T03:38:35.179Z,12.99
2022-10-25T03:39:32.282Z,13.05
2022-10-25T03:40:32.302Z,12.98
2022-10-25T03:41:32.293Z,12.98
2022-10-25T03:42:32.283Z,13.03
2022-10-25T03:43:33.321Z,12.99
2022-10-25T03:44:32.285Z,12.99
2022-10-25T03:45:32.295Z,13.08
2022-10-25T03:46:32.315Z,12.95
2022-10-25T03:47:32.461Z,12.99
2022-10-25T03:48:32.360Z,12.99
2022-10-25T03:49:35.321Z,12.95
2022-10-25T03:50:32.297Z,12.98
2022-10-25T03:51:32.304Z,12.99
2022-10-25T03:52:32.337Z,12.99
2022-10-25T03:53:32.304Z,12.93
2022-10-25T03:54:34.066Z,12.98
2022-10-25T03:55:32.301Z,12.95
2022-10-25T03:56:32.317Z,12.94
2022-10-25T03:57:32.317Z,12.94
2022-10-25T03:58:32.335Z,12.94
2022-10-25T03:59:32.335Z,12.93
2022-10-25T04:00:35.671Z,12.91
2022-10-25T04:01:32.876Z,12.93
2022-10-25T04:02:32.317Z,12.93
2022-10-25T04:03:32.327Z,12.95
2022-10-25T04:04:32.389Z,12.93
2022-10-25T04:05:35.199Z,12.94
2022-10-25T04:06:32.396Z,12.88
2022-10-25T04:07:32.328Z,12.94
2022-10-25T04:08:32.364Z,12.87
2022-10-25T04:09:32.529Z,12.9
2022-10-25T04:10:32.434Z,12.93
2022-10-25T04:11:35.154Z,12.9
2022-10-25T04:12:32.334Z,12.91
2022-10-25T04:13:32.348Z,12.98
2022-10-25T04:14:32.385Z,12.93
2022-10-25T04:15:32.358Z,12.91
2022-10-25T04:16:35.190Z,12.93
2022-10-25T04:17:32.376Z,12.91
2022-10-25T04:18:32.343Z,12.94
2022-10-25T04:19:32.364Z,12.94
2022-10-25T04:20:32.402Z,12.87
2022-10-25T04:21:32.372Z,12.91
2022-10-25T04:22:32.495Z,12.9
2022-10-25T04:23:32.366Z,12.88
2022-10-25T04:24:32.424Z,12.9
2022-10-25T04:25:32.361Z,12.87
2022-10-25T04:26:32.372Z,12.84
2022-10-25T04:27:35.416Z,12.83
2022-10-25T04:28:32.389Z,12.8
2022-10-25T04:29:32.379Z,12.78
2022-10-25T04:30:38.109Z,12.86
2022-10-25T04:31:32.400Z,12.73
2022-10-25T04:32:32.378Z,12.76
2022-10-25T04:33:32.364Z,12.73
2022-10-25T04:34:32.387Z,12.69
2022-10-25T04:35:32.386Z,12.62
2022-10-25T04:36:32.462Z,12.76
2022-10-25T04:37:32.393Z,12.69
2022-10-25T04:38:32.383Z,12.78
2022-10-25T04:39:32.403Z,12.73
2022-10-25T04:40:32.417Z,12.69
2022-10-25T04:41:32.393Z,12.66
2022-10-25T04:42:32.385Z,12.65
2022-10-25T04:43:35.459Z,12.75
2022-10-25T04:44:32.409Z,12.76
2022-10-25T04:45:32.392Z,12.58
2022-10-25T04:46:32.400Z,12.66
2022-10-25T04:47:32.477Z,12.61
2022-10-25T04:48:32.406Z,12.78
2022-10-25T04:49:32.425Z,12.69
2022-10-25T04:50:32.394Z,12.61
2022-10-25T04:51:32.393Z,12.62
2022-10-25T04:52:32.452Z,12.68
2022-10-25T04:53:32.468Z,12.72
2022-10-25T04:54:35.468Z,12.55
2022-10-25T04:55:32.410Z,12.66
2022-10-25T04:56:32.443Z,12.61
2022-10-25T04:57:32.409Z,12.63
2022-10-25T04:58:36.071Z,12.54
2022-10-25T04:59:35.722Z,12.55
2022-10-25T05:00:32.414Z,12.58
2022-10-25T05:01:32.943Z,12.43
2022-10-25T05:02:32.639Z,12.45
2022-10-25T05:03:32.577Z,12.47
2022-10-25T05:04:32.415Z,12.45
2022-10-25T05:05:32.417Z,12.35
2022-10-25T05:06:32.431Z,12.33
2022-10-25T05:07:32.430Z,12.29
2022-10-25T05:08:32.476Z,12.33
2022-10-25T05:09:32.437Z,12.29
2022-10-25T05:10:35.208Z,12.25
2022-10-25T05:11:32.685Z,12.14
2022-10-25T05:12:32.458Z,12.28
2022-10-25T05:13:32.442Z,12.2
2022-10-25T05:14:32.439Z,12.12
2022-10-25T05:15:32.443Z,12.2
2022-10-25T05:16:32.580Z,12.17
2022-10-25T05:17:35.432Z,12.02
2022-10-25T05:18:32.472Z,12.14
2022-10-25T05:19:35.215Z,12.1
2022-10-25T05:20:32.442Z,12.14
2022-10-25T05:21:36.580Z,12.11
2022-10-25T05:22:32.479Z,12.12
2022-10-25T05:23:32.442Z,12.12
2022-10-25T05:24:32.560Z,12.15
2022-10-25T05:25:32.651Z,12.21
2022-10-25T05:26:32.487Z,12.15
2022-10-25T05:27:33.551Z,12.18
2022-10-25T05:28:32.486Z,12.29
2022-10-25T05:29:32.481Z,12.18
2022-10-25T05:30:32.472Z,12.28
2022-10-25T05:31:32.301Z,12.18
2022-10-25T05:32:33.569Z,12.23
2022-10-25T05:33:32.468Z,12.2
2022-10-25T05:34:32.555Z,12.15
2022-10-25T05:35:32.470Z,12.14
2022-10-25T05:36:32.492Z,12.17
2022-10-25T05:37:32.470Z,12.15
2022-10-25T05:38:39.332Z,12.17
2022-10-25T05:39:32.475Z,12.21
2022-10-25T05:40:32.522Z,12.26
2022-10-25T05:41:39.245Z,12.25
2022-10-25T05:42:32.489Z,12.18
2022-10-25T05:43:35.285Z,12.17
2022-10-25T05:44:32.538Z,12.28
2022-10-25T05:45:32.491Z,12.33
2022-10-25T05:46:32.514Z,12.28
2022-10-25T05:47:32.494Z,12.3
2022-10-25T05:48:32.501Z,12.33
2022-10-25T05:49:32.491Z,12.29
2022-10-25T05:50:32.655Z,12.32
2022-10-25T05:51:39.862Z,12.4
2022-10-25T05:52:32.517Z,12.3
2022-10-25T05:53:32.500Z,12.39
2022-10-25T05:54:35.541Z,12.36
2022-10-25T05:55:35.573Z,12.37
2022-10-25T05:56:32.519Z,12.33
2022-10-25T05:57:32.518Z,12.35
2022-10-25T05:58:32.520Z,12.45
2022-10-25T05:59:32.516Z,12.48
2022-10-25T06:00:32.815Z,12.33
2022-10-25T06:01:33.023Z,12.44
2022-10-25T06:02:32.810Z,12.45
2022-10-25T06:03:32.525Z,12.36
2022-10-25T06:04:32.520Z,12.45
2022-10-25T06:05:35.472Z,12.44
2022-10-25T06:06:32.529Z,12.33
2022-10-25T06:07:32.536Z,12.5
2022-10-25T06:08:32.540Z,12.48
2022-10-25T06:09:32.542Z,12.4
2022-10-25T06:10:32.535Z,12.44
2022-10-25T06:11:32.597Z,12.51
2022-10-25T06:12:32.363Z,12.54
2022-10-25T06:13:32.373Z,12.54
2022-10-25T06:14:32.547Z,12.53
2022-10-25T06:15:32.546Z,12.58
2022-10-25T06:16:35.656Z,12.63
2022-10-25T06:17:32.543Z,12.65
2022-10-25T06:18:32.544Z,12.55
2022-10-25T06:19:32.543Z,12.68
2022-10-25T06:20:32.904Z,12.75
2022-10-25T06:21:38.661Z,12.63
2022-10-25T06:22:32.549Z,12.68
2022-10-25T06:23:32.539Z,12.65
2022-10-25T06:24:32.545Z,12.66
2022-10-25T06:25:32.581Z,12.63
2022-10-25T06:26:32.560Z,12.66
2022-10-25T06:27:35.377Z,12.76
2022-10-25T06:28:32.576Z,12.73
2022-10-25T06:29:32.567Z,12.76
2022-10-25T06:30:33.748Z,12.73
2022-10-25T06:31:32.577Z,12.75
2022-10-25T06:32:35.592Z,12.8
2022-10-25T06:33:32.832Z,12.81
2022-10-25T06:34:32.574Z,12.84
2022-10-25T06:35:32.621Z,12.83
2022-10-25T06:36:32.773Z,12.8
2022-10-25T06:37:32.642Z,12.81
2022-10-25T06:38:35.339Z,12.78
2022-10-25T06:39:32.591Z,12.86
2022-10-25T06:40:32.611Z,12.93
2022-10-25T06:41:32.673Z,12.93
2022-10-25T06:42:32.592Z,12.95
2022-10-25T06:43:33.714Z,12.93
2022-10-25T06:44:32.594Z,12.99
2022-10-25T06:45:32.613Z,13.11
2022-10-25T06:46:32.603Z,13.06
2022-10-25T06:47:32.814Z,13.12
2022-10-25T06:48:33.274Z,13.2
2022-10-25T06:49:32.613Z,13.23
2022-10-25T06:50:32.632Z,13.3
2022-10-25T06:51:32.604Z,13.27
2022-10-25T06:52:32.602Z,13.27
2022-10-25T06:53:32.602Z,13.27
2022-10-25T06:54:35.463Z,13.24
2022-10-25T06:55:32.623Z,13.39
2022-10-25T06:56:32.610Z,13.37
2022-10-25T06:57:32.610Z,13.45
2022-10-25T06:58:32.604Z,13.52
2022-10-25T06:59:32.730Z,13.58
2022-10-25T07:00:32.650Z,13.52
2022-10-25T07:01:33.043Z,13.62
2022-10-25T07:02:33.025Z,13.58
2022-10-25T07:03:32.619Z,13.55
2022-10-25T07:04:32.651Z,13.65
2022-10-25T07:05:35.396Z,13.67
2022-10-25T07:07:32.686Z,13.76
2022-10-25T07:08:32.623Z,13.68
2022-10-25T07:09:32.621Z,13.67
2022-10-25T07:10:35.409Z,13.67
2022-10-25T07:11:32.678Z,13.7
2022-10-25T07:12:32.631Z,13.85
2022-10-25T07:13:32.629Z,13.75
2022-10-25T07:14:32.736Z,13.78
2022-10-25T07:15:32.762Z,13.87
2022-10-25T07:16:32.644Z,13.95
2022-10-25T07:17:32.644Z,13.98
2022-10-25T07:18:32.646Z,13.93
2022-10-25T07:19:32.675Z,13.94
2022-10-25T07:20:32.695Z,13.97
2022-10-25T07:21:32.646Z,14.12
2022-10-25T07:22:32.654Z,14
2022-10-25T07:23:32.646Z,14.04
2022-10-25T07:24:32.651Z,14.31
2022-10-25T07:25:32.707Z,14.33
2022-10-25T07:26:35.871Z,14.33
2022-10-25T07:27:32.652Z,14.28
2022-10-25T07:28:32.659Z,14.34
2022-10-25T07:29:32.655Z,14.49
2022-10-25T07:30:32.680Z,14.58
2022-10-25T07:31:32.711Z,14.67
2022-10-25T07:32:32.663Z,14.73
2022-10-25T07:33:32.669Z,14.68
2022-10-25T07:34:32.666Z,14.66
2022-10-25T07:35:46.635Z,14.74
2022-10-25T07:36:32.703Z,14.89
2022-10-25T07:37:35.584Z,15.15
2022-10-25T07:38:32.707Z,15.22
2022-10-25T07:39:32.685Z,15.19
2022-10-25T07:40:32.714Z,15.29
2022-10-25T07:41:32.676Z,15.35
2022-10-25T07:42:32.709Z,15.5
2022-10-25T07:43:32.686Z,15.69
2022-10-25T07:44:32.698Z,16.02
2022-10-25T07:45:35.781Z,15.9
2022-10-25T07:46:32.720Z,16.17
2022-10-25T07:47:32.748Z,16.39
2022-10-25T07:48:35.536Z,16.69
2022-10-25T07:49:32.692Z,16.94
2022-10-25T07:50:32.713Z,17.2
2022-10-25T07:51:32.698Z,17.31
2022-10-25T07:52:32.771Z,17.52
2022-10-25T07:53:32.703Z,17.73
2022-10-25T07:54:32.808Z,17.91
2022-10-25T07:55:32.738Z,18.19
2022-10-25T07:56:32.716Z,18.37
2022-10-25T07:57:35.567Z,18.58
2022-10-25T07:58:32.719Z,18.73
2022-10-25T07:59:35.774Z,18.96
2022-10-25T08:00:32.754Z,18.82
2022-10-25T08:01:32.988Z,18.83
2022-10-25T08:02:32.722Z,19.04
2022-10-25T08:03:33.068Z,19.23
2022-10-25T08:04:33.822Z,19.37
2022-10-25T08:05:32.741Z,19.47
2022-10-25T08:06:32.730Z,19.55
2022-10-25T08:07:32.730Z,19.64
2022-10-25T08:08:32.742Z,19.79
2022-10-25T08:09:42.371Z,19.97
2022-10-25T08:10:35.837Z,20.04
2022-10-25T08:11:32.767Z,20
2022-10-25T08:12:32.571Z,20.19
2022-10-25T08:13:35.623Z,20.18
2022-10-25T08:14:33.894Z,20.21
2022-10-25T08:15:32.776Z,20.26
2022-10-25T08:16:32.745Z,20.4
2022-10-25T08:17:32.748Z,20.44
2022-10-25T08:18:32.747Z,20.6
2022-10-25T08:19:32.797Z,20.58
2022-10-25T08:21:09.286Z,19.49
2022-10-25T08:21:35.665Z,19.77
2022-10-25T08:22:32.749Z,19.27
2022-10-25T08:23:32.863Z,19.78
2022-10-25T08:24:33.305Z,20.26
2022-10-25T08:25:32.807Z,20.22
2022-10-25T08:26:39.110Z,20.26
2022-10-25T08:27:32.774Z,20.18
2022-10-25T08:28:32.791Z,20.18
2022-10-25T08:29:32.771Z,19.97
2022-10-25T08:30:32.788Z,20.11
2022-10-25T08:31:32.854Z,19.9
2022-10-25T08:32:33.040Z,20.29
2022-10-25T08:33:32.786Z,20.48
2022-10-25T08:34:36.962Z,20.63
2022-10-25T08:35:32.821Z,20.71
2022-10-25T08:36:32.800Z,20.22
2022-10-25T08:37:32.841Z,20.1
2022-10-25T08:38:32.780Z,19.78
2022-10-25T08:39:32.805Z,20.08
2022-10-25T08:40:32.835Z,20.22
2022-10-25T08:41:32.798Z,20.42
2022-10-25T08:42:32.786Z,20.42
2022-10-25T08:43:35.855Z,20.44
2022-10-25T08:44:32.793Z,20.6
2022-10-25T08:45:32.845Z,20.71
2022-10-25T08:46:32.786Z,20.68
2022-10-25T08:47:32.808Z,20.4
2022-10-25T08:48:33.026Z,20.68
2022-10-25T08:49:32.812Z,20.55
2022-10-25T08:50:32.911Z,20.64
2022-10-25T08:51:32.802Z,20.74
2022-10-25T08:52:32.807Z,20.74
2022-10-25T08:53:32.836Z,20.52
2022-10-25T08:54:34.025Z,20.73
2022-10-25T08:55:32.851Z,20.6
2022-10-25T08:56:32.853Z,20.04
2022-10-25T08:57:32.823Z,20.26
2022-10-25T08:58:32.832Z,20.21
2022-10-25T08:59:35.984Z,20.27
2022-10-25T09:00:32.873Z,20.27
2022-10-25T09:01:33.397Z,20.3
2022-10-25T09:02:33.249Z,20.14
2022-10-25T09:03:33.156Z,20.14
2022-10-25T09:04:32.841Z,20.48
2022-10-25T09:05:35.734Z,20.85
2022-10-25T09:06:32.869Z,20.95
2022-10-25T09:07:33.311Z,21.01
2022-10-25T09:08:33.075Z,20.92
2022-10-25T09:09:32.843Z,21.08
2022-10-25T09:10:34.306Z,21.22
2022-10-25T09:11:32.856Z,21.28
2022-10-25T09:12:32.864Z,20.95
2022-10-25T09:13:33.083Z,21.11
2022-10-25T09:14:32.861Z,21.2
2022-10-25T09:15:32.885Z,21.11
2022-10-25T09:16:32.852Z,20.98
2022-10-25T09:17:32.856Z,21.03
2022-10-25T09:18:32.865Z,21.04
2022-10-25T09:19:32.865Z,20.89
2022-10-25T09:20:32.879Z,20.89
2022-10-25T09:21:36.003Z,20.92
2022-10-25T09:22:32.864Z,21.01
2022-10-25T09:23:32.858Z,21.13
2022-10-25T09:24:32.861Z,20.74
2022-10-25T09:25:32.901Z,21.03
2022-10-25T09:26:32.896Z,21.33
2022-10-25T09:27:32.867Z,21.41
2022-10-25T09:28:32.899Z,21.08
2022-10-25T09:29:35.946Z,21.38
2022-10-25T09:30:32.899Z,21.43
2022-10-25T09:31:32.910Z,20.93
2022-10-25T09:32:32.892Z,21.45
2022-10-25T09:33:33.021Z,21.2
2022-10-25T09:34:32.897Z,21.44
2022-10-25T09:35:36.134Z,20.95
2022-10-25T09:36:36.009Z,20.98
2022-10-25T09:37:36.075Z,21.19
2022-10-25T09:38:32.889Z,21.3
2022-10-25T09:39:32.894Z,21.3
2022-10-25T09:40:32.917Z,21.08
2022-10-25T09:41:32.961Z,21.1
2022-10-25T09:42:32.895Z,21.3
2022-10-25T09:43:32.910Z,20.98
2022-10-25T09:44:32.972Z,21.01
2022-10-25T09:45:32.937Z,20.88
2022-10-25T09:46:32.905Z,20.86
2022-10-25T09:47:33.025Z,21.08
2022-10-25T09:48:35.944Z,20.92
2022-10-25T09:49:32.907Z,20.89
2022-10-25T09:50:32.937Z,20.74
2022-10-25T09:51:32.916Z,20.74
2022-10-25T09:52:32.922Z,20.21
2022-10-25T09:53:36.098Z,20.34
2022-10-25T09:54:32.915Z,20.12
2022-10-25T09:55:32.953Z,20.24
2022-10-25T09:56:32.928Z,20.02
2022-10-25T09:57:32.923Z,19.77
2022-10-25T09:58:32.946Z,19.64
2022-10-25T09:59:32.965Z,19.6
2022-10-25T10:00:32.984Z,19.56
2022-10-25T10:01:33.578Z,19.19
2022-10-25T10:02:33.470Z,19
2022-10-25T10:03:32.948Z,19.24
2022-10-25T10:04:35.962Z,19.23
2022-10-25T10:05:32.961Z,18.97
2022-10-25T10:06:32.961Z,18.68
2022-10-25T10:07:32.953Z,18.79
2022-10-25T10:08:32.953Z,19.04
2022-10-25T10:09:33.002Z,19.2
2022-10-25T10:10:33.014Z,19.37
2022-10-25T10:11:35.946Z,19.35
2022-10-25T10:12:32.953Z,19.35
2022-10-25T10:13:32.969Z,19.44
2022-10-25T10:14:32.956Z,19.35
2022-10-25T10:15:35.949Z,19.45
2022-10-25T10:16:32.997Z,19.39
2022-10-25T10:17:32.973Z,19.49
2022-10-25T10:18:33.014Z,19.79
2022-10-25T10:19:32.968Z,19.87
2022-10-25T10:20:32.977Z,20.02
2022-10-25T10:21:32.969Z,20.12
2022-10-25T10:22:32.988Z,19.97
2022-10-25T10:23:32.978Z,20.21
2022-10-25T10:24:32.981Z,20.4
2022-10-25T10:25:33.020Z,20.3
2022-10-25T10:26:35.883Z,20.21
2022-10-25T10:27:32.976Z,20.18
2022-10-25T10:28:33.005Z,20.34
2022-10-25T10:29:32.982Z,20.46
2022-10-25T10:30:32.992Z,20.46
2022-10-25T10:31:33.004Z,20.24
2022-10-25T10:32:33.198Z,20.26
2022-10-25T10:33:33.001Z,19.99
2022-10-25T10:34:32.994Z,19.82
2022-10-25T10:35:33.139Z,19.63
2022-10-25T10:36:33.022Z,19.62
2022-10-25T10:37:35.771Z,19.78
2022-10-25T10:38:33.037Z,19.85
2022-10-25T10:39:33.014Z,19.57
2022-10-25T10:40:33.059Z,19.89
2022-10-25T10:41:33.170Z,19.57
2022-10-25T10:42:34.125Z,19.92
2022-10-25T10:43:33.009Z,19.97
2022-10-25T10:44:34.101Z,19.94
2022-10-25T10:45:33.022Z,19.87
2022-10-25T10:46:33.132Z,19.93
2022-10-25T10:47:33.026Z,19.94
2022-10-25T10:48:39.000Z,19.71
2022-10-25T10:49:33.028Z,19.75
2022-10-25T10:50:33.173Z,19.59
2022-10-25T10:51:49.754Z,19.41
2022-10-25T10:52:33.067Z,19.48
2022-10-25T10:53:33.047Z,19.49
2022-10-25T10:54:33.060Z,19.63
2022-10-25T10:55:33.039Z,19.66
2022-10-25T10:56:33.094Z,19.62
2022-10-25T10:57:33.240Z,19.6
2022-10-25T10:58:33.029Z,19.57
2022-10-25T10:59:35.904Z,19.59
2022-10-25T11:00:33.046Z,19.3
2022-10-25T11:01:33.629Z,19.24
2022-10-25T11:02:33.749Z,19.09
2022-10-25T11:03:33.056Z,19.01
2022-10-25T11:04:33.131Z,19.24
2022-10-25T11:05:33.056Z,19.11
2022-10-25T11:06:33.086Z,18.92
2022-10-25T11:07:33.126Z,19.04
2022-10-25T11:08:33.069Z,19.23
2022-10-25T11:09:33.054Z,19.19
2022-10-25T11:10:36.116Z,19.16
2022-10-25T11:11:33.107Z,19.29
2022-10-25T11:12:34.870Z,19.29
2022-10-25T11:13:33.304Z,19.3
2022-10-25T11:14:33.071Z,19.19
2022-10-25T11:15:33.074Z,19.17
2022-10-25T11:16:33.103Z,19.35
2022-10-25T11:17:35.945Z,19.26
2022-10-25T11:18:33.080Z,19.44
2022-10-25T11:19:33.074Z,19.38
2022-10-25T11:20:33.206Z,19.26
2022-10-25T11:21:36.958Z,19.34
2022-10-25T11:22:37.581Z,19.3
2022-10-25T11:23:33.155Z,19.38
2022-10-25T11:24:33.072Z,19.34
2022-10-25T11:25:36.001Z,19.37
2022-10-25T11:26:34.316Z,19.45
2022-10-25T11:27:37.451Z,19.66
2022-10-25T11:28:33.091Z,19.75
2022-10-25T11:29:42.196Z,19.79
2022-10-25T11:30:33.138Z,19.71
2022-10-25T11:31:33.118Z,19.66
2022-10-25T11:32:39.081Z,19.67
2022-10-25T11:33:33.113Z,19.63
2022-10-25T11:34:33.094Z,19.52
2022-10-25T11:35:33.091Z,19.48
2022-10-25T11:36:33.239Z,19.41
2022-10-25T11:37:36.107Z,19.59
2022-10-25T11:38:33.120Z,19.63
2022-10-25T11:39:33.112Z,19.78
2022-10-25T11:40:33.127Z,19.85
2022-10-25T11:41:33.163Z,20
2022-10-25T11:42:33.130Z,20.1
2022-10-25T11:43:33.175Z,20.17
2022-10-25T11:44:33.112Z,20.15
2022-10-25T11:45:33.398Z,20.24
2022-10-25T11:46:33.140Z,20.3
2022-10-25T11:47:36.764Z,20.56
2022-10-25T11:48:36.022Z,20.48
2022-10-25T11:49:33.170Z,20.34
2022-10-25T11:50:33.129Z,20.33
2022-10-25T11:51:33.174Z,20.4
2022-10-25T11:52:33.248Z,20.46
2022-10-25T11:53:33.143Z,20.49
2022-10-25T11:54:33.183Z,20.64
2022-10-25T11:55:34.197Z,20.48
2022-10-25T11:56:33.177Z,20.66
2022-10-25T11:57:33.159Z,20.86
2022-10-25T11:58:33.175Z,20.93
2022-10-25T11:59:33.162Z,20.78
2022-10-25T12:00:33.173Z,21.03
2022-10-25T12:01:33.605Z,20.95
2022-10-25T12:02:33.339Z,20.96
2022-10-25T12:03:33.162Z,21.01
2022-10-25T12:04:39.307Z,21.05
2022-10-25T12:05:33.187Z,21.3
2022-10-25T12:06:33.229Z,21.14
2022-10-25T12:07:33.181Z,20.96
2022-10-25T12:08:33.336Z,20.92
2022-10-25T12:09:33.204Z,20.88
2022-10-25T12:10:33.208Z,20.89
2022-10-25T12:11:33.229Z,20.89
2022-10-25T12:12:33.166Z,20.73
2022-10-25T12:13:33.173Z,20.63
2022-10-25T12:14:33.174Z,20.78
2022-10-25T12:15:36.329Z,20.7
2022-10-25T12:16:33.245Z,20.88
2022-10-25T12:17:33.424Z,20.71
2022-10-25T12:18:33.183Z,20.63
2022-10-25T12:19:33.185Z,20.75
2022-10-25T12:20:37.089Z,20.55
2022-10-25T12:21:33.213Z,20.55
2022-10-25T12:22:33.187Z,20.59
2022-10-25T12:23:33.194Z,20.67
2022-10-25T12:24:33.417Z,20.63
2022-10-25T12:25:33.204Z,20.78
2022-10-25T12:26:36.363Z,20.77
2022-10-25T12:27:33.194Z,20.78
2022-10-25T12:28:33.192Z,20.78
2022-10-25T12:29:33.269Z,20.82
2022-10-25T12:30:33.241Z,20.95
2022-10-25T12:31:36.109Z,21.17
2022-10-25T12:32:33.217Z,21.26
2022-10-25T12:33:33.449Z,21.14
2022-10-25T12:34:33.205Z,21.05
2022-10-25T12:35:33.210Z,21.11
2022-10-25T12:36:33.293Z,21.17
2022-10-25T12:37:33.390Z,21.15
2022-10-25T12:38:33.216Z,21.2
2022-10-25T12:39:33.248Z,21.48
2022-10-25T12:40:34.591Z,21.51
2022-10-25T12:41:33.219Z,21.4
2022-10-25T12:42:33.437Z,21.38
2022-10-25T12:43:33.217Z,21.41
2022-10-25T12:44:33.225Z,21.58
2022-10-25T12:45:33.248Z,21.58
2022-10-25T12:46:33.230Z,21.68
2022-10-25T12:47:36.300Z,21.99
2022-10-25T12:48:33.243Z,22.08
2022-10-25T12:49:33.462Z,22.14
2022-10-25T12:50:33.242Z,22.18
2022-10-25T12:51:42.402Z,22.21
2022-10-25T12:52:33.229Z,22.19
2022-10-25T12:53:36.002Z,22.41
2022-10-25T12:54:33.252Z,22.26
2022-10-25T12:55:33.251Z,22.1
2022-10-25T12:56:33.383Z,22.3
2022-10-25T12:57:33.470Z,22.34
2022-10-25T12:58:33.264Z,22.51